![]() |
EMODnet Physics ERDDAP
Easier access to scientific data |
log in|
Brought to you by EMODnet Physics |
| Dataset Title: | NDBC - Collection of dew point temperature (DEWT) TimeSeries - IN SITU MultiPointTimeSeriesObservation
|
| Institution: | NDBC (Dataset ID: TS_DEWT_NDBC) |
| Information: | Summary
| License
| FGDC
| ISO 19115
| Metadata
| Background
| Subset
| Data Access Form
| Make a graph
|
| Name | Last modified | Size | Description | |
|---|---|---|---|---|
| Parent Directory | - | - | ||
| MRNA2_TS_DEWT_012013.nc | 27-Oct-2024 15:18 | 1110253 | ||
| MRNA2_TS_DEWT_012014.nc | 27-Oct-2024 15:18 | 429799 | ||
| MRNA2_TS_DEWT_012015.nc | 27-Oct-2024 15:18 | 429824 | ||
| MRNA2_TS_DEWT_012016.nc | 27-Oct-2024 15:18 | 429824 | ||
| MRNA2_TS_DEWT_012017.nc | 27-Oct-2024 15:18 | 429809 | ||
| MRNA2_TS_DEWT_012019.nc | 27-Oct-2024 15:18 | 429824 | ||
| MRNA2_TS_DEWT_012020.nc | 27-Oct-2024 15:18 | 429644 | ||
| MRNA2_TS_DEWT_012021.nc | 27-Oct-2024 15:18 | 429788 | ||
| MRNA2_TS_DEWT_012022.nc | 27-Oct-2024 15:18 | 429821 | ||
| MRNA2_TS_DEWT_012023.nc | 27-Oct-2024 15:18 | 429809 | ||
| MRNA2_TS_DEWT_012024.nc | 27-Oct-2024 15:19 | 429826 | ||
| MRNA2_TS_DEWT_012025.nc | 07-Feb-2025 10:58 | 429823 | ||
| MRNA2_TS_DEWT_012026.nc | 02-Feb-2026 17:11 | 429472 | ||
| MRNA2_TS_DEWT_022013.nc | 27-Oct-2024 15:19 | 429758 | ||
| MRNA2_TS_DEWT_022014.nc | 27-Oct-2024 15:19 | 429822 | ||
| MRNA2_TS_DEWT_022015.nc | 27-Oct-2024 15:19 | 1144105 | ||
| MRNA2_TS_DEWT_022016.nc | 27-Oct-2024 15:20 | 908865 | ||
| MRNA2_TS_DEWT_022017.nc | 27-Oct-2024 15:20 | 906101 | ||
| MRNA2_TS_DEWT_022019.nc | 27-Oct-2024 15:20 | 1264431 | ||
| MRNA2_TS_DEWT_022020.nc | 27-Oct-2024 15:20 | 429464 | ||
| MRNA2_TS_DEWT_022021.nc | 27-Oct-2024 15:20 | 429487 | ||
| MRNA2_TS_DEWT_022022.nc | 27-Oct-2024 15:20 | 429484 | ||
| MRNA2_TS_DEWT_022023.nc | 27-Oct-2024 15:20 | 429469 | ||
| MRNA2_TS_DEWT_022024.nc | 16-Sep-2024 16:51 | 429487 | ||
| MRNA2_TS_DEWT_022025.nc | 03-Mar-2025 05:15 | 420119 | ||
| MRNA2_TS_DEWT_022026.nc | 01-Mar-2026 06:00 | 429483 | ||
| MRNA2_TS_DEWT_032013.nc | 27-Oct-2024 15:20 | 429483 | ||
| MRNA2_TS_DEWT_032014.nc | 27-Oct-2024 15:20 | 429485 | ||
| MRNA2_TS_DEWT_032015.nc | 27-Oct-2024 15:20 | 429484 | ||
| MRNA2_TS_DEWT_032016.nc | 27-Oct-2024 15:20 | 429472 | ||
| MRNA2_TS_DEWT_032019.nc | 27-Oct-2024 15:20 | 429581 | ||
| MRNA2_TS_DEWT_032020.nc | 27-Oct-2024 15:20 | 429487 | ||
| MRNA2_TS_DEWT_032021.nc | 27-Oct-2024 15:20 | 1008404 | ||
| MRNA2_TS_DEWT_032022.nc | 27-Oct-2024 15:20 | 995664 | ||
| MRNA2_TS_DEWT_032023.nc | 27-Oct-2024 15:20 | 993566 | ||
| MRNA2_TS_DEWT_032025.nc | 02-Apr-2025 04:20 | 1114826 | ||
| MRNA2_TS_DEWT_032026.nc | 21-Mar-2026 06:36 | 429829 | ||
| MRNA2_TS_DEWT_042013.nc | 27-Oct-2024 15:20 | 429825 | ||
| MRNA2_TS_DEWT_042014.nc | 27-Oct-2024 15:21 | 429805 | ||
| MRNA2_TS_DEWT_042015.nc | 27-Oct-2024 15:21 | 429829 | ||
| MRNA2_TS_DEWT_042016.nc | 27-Oct-2024 15:21 | 429820 | ||
| MRNA2_TS_DEWT_042018.nc | 27-Oct-2024 15:21 | 426191 | ||
| MRNA2_TS_DEWT_042019.nc | 27-Oct-2024 15:21 | 429691 | ||
| MRNA2_TS_DEWT_042020.nc | 27-Oct-2024 15:21 | 429825 | ||
| MRNA2_TS_DEWT_042021.nc | 27-Oct-2024 15:21 | 429827 | ||
| MRNA2_TS_DEWT_042022.nc | 27-Oct-2024 15:21 | 429824 | ||
| MRNA2_TS_DEWT_042023.nc | 27-Oct-2024 15:21 | 429827 | ||
| MRNA2_TS_DEWT_042025.nc | 01-May-2025 06:17 | 429805 | ||
| MRNA2_TS_DEWT_052013.nc | 27-Oct-2024 15:21 | 429749 | ||
| MRNA2_TS_DEWT_052014.nc | 27-Oct-2024 15:21 | 1261123 | ||
| MRNA2_TS_DEWT_052015.nc | 27-Oct-2024 15:21 | 994855 | ||
| MRNA2_TS_DEWT_052016.nc | 27-Oct-2024 15:21 | 1142677 | ||
| MRNA2_TS_DEWT_052018.nc | 27-Oct-2024 15:22 | 1260390 | ||
| MRNA2_TS_DEWT_052019.nc | 27-Oct-2024 15:22 | 429809 | ||
| MRNA2_TS_DEWT_052020.nc | 27-Oct-2024 15:22 | 429824 | ||
| MRNA2_TS_DEWT_052021.nc | 27-Oct-2024 15:22 | 429826 | ||
| MRNA2_TS_DEWT_052022.nc | 27-Oct-2024 15:22 | 429756 | ||
| MRNA2_TS_DEWT_052023.nc | 27-Oct-2024 15:22 | 429825 | ||
| MRNA2_TS_DEWT_052025.nc | 01-Jun-2025 08:35 | 429823 | ||
| MRNA2_TS_DEWT_062013.nc | 27-Oct-2024 15:22 | 429822 | ||
| MRNA2_TS_DEWT_062014.nc | 27-Oct-2024 15:22 | 429776 | ||
| MRNA2_TS_DEWT_062015.nc | 27-Oct-2024 15:22 | 429829 | ||
| MRNA2_TS_DEWT_062016.nc | 27-Oct-2024 15:22 | 429825 | ||
| MRNA2_TS_DEWT_062018.nc | 27-Oct-2024 15:22 | 429826 | ||
| MRNA2_TS_DEWT_062019.nc | 27-Oct-2024 15:22 | 429827 | ||
| MRNA2_TS_DEWT_062020.nc | 27-Oct-2024 15:22 | 429826 | ||
| MRNA2_TS_DEWT_062021.nc | 27-Oct-2024 15:22 | 1263455 | ||
| MRNA2_TS_DEWT_062022.nc | 27-Oct-2024 15:23 | 1144137 | ||
| MRNA2_TS_DEWT_062023.nc | 27-Oct-2024 15:23 | 992987 | ||
| MRNA2_TS_DEWT_062025.nc | 01-Jul-2025 05:54 | 686414 | ||
| MRNA2_TS_DEWT_072013.nc | 27-Oct-2024 15:23 | 1263530 | ||
| MRNA2_TS_DEWT_072014.nc | 27-Oct-2024 15:23 | 429480 | ||
| MRNA2_TS_DEWT_072015.nc | 27-Oct-2024 15:23 | 429350 | ||
| MRNA2_TS_DEWT_072016.nc | 27-Oct-2024 15:23 | 429416 | ||
| MRNA2_TS_DEWT_072018.nc | 27-Oct-2024 15:23 | 429486 | ||
| MRNA2_TS_DEWT_072019.nc | 27-Oct-2024 15:23 | 429485 | ||
| MRNA2_TS_DEWT_072020.nc | 27-Oct-2024 15:23 | 429210 | ||
| MRNA2_TS_DEWT_072021.nc | 27-Oct-2024 15:23 | 429481 | ||
| MRNA2_TS_DEWT_072022.nc | 27-Oct-2024 15:23 | 422024 | ||
| MRNA2_TS_DEWT_072023.nc | 27-Oct-2024 15:23 | 420423 | ||
| MRNA2_TS_DEWT_072025.nc | 01-Aug-2025 06:03 | 429480 | ||
| MRNA2_TS_DEWT_082013.nc | 27-Oct-2024 15:23 | 429483 | ||
| MRNA2_TS_DEWT_082014.nc | 27-Oct-2024 15:23 | 429486 | ||
| MRNA2_TS_DEWT_082016.nc | 27-Oct-2024 15:24 | 429481 | ||
| MRNA2_TS_DEWT_082018.nc | 27-Oct-2024 15:24 | 429482 | ||
| MRNA2_TS_DEWT_082019.nc | 27-Oct-2024 15:24 | 429487 | ||
| MRNA2_TS_DEWT_082020.nc | 27-Oct-2024 15:24 | 1109548 | ||
| MRNA2_TS_DEWT_082021.nc | 27-Oct-2024 15:24 | 995648 | ||
| MRNA2_TS_DEWT_082022.nc | 27-Oct-2024 15:24 | 995363 | ||
| MRNA2_TS_DEWT_082023.nc | 27-Oct-2024 15:24 | 1114462 | ||
| MRNA2_TS_DEWT_082025.nc | 01-Sep-2025 07:33 | 1114080 | ||
| MRNA2_TS_DEWT_092013.nc | 27-Oct-2024 15:24 | 429822 | ||
| MRNA2_TS_DEWT_092014.nc | 27-Oct-2024 15:24 | 429829 | ||
| MRNA2_TS_DEWT_092016.nc | 27-Oct-2024 15:24 | 429821 | ||
| MRNA2_TS_DEWT_092018.nc | 27-Oct-2024 15:24 | 429826 | ||
| MRNA2_TS_DEWT_092019.nc | 27-Oct-2024 15:24 | 429826 | ||
| MRNA2_TS_DEWT_092020.nc | 27-Oct-2024 15:24 | 429813 | ||
| MRNA2_TS_DEWT_092021.nc | 27-Oct-2024 15:24 | 429659 | ||
| MRNA2_TS_DEWT_092022.nc | 27-Oct-2024 15:25 | 429828 | ||
| MRNA2_TS_DEWT_092023.nc | 27-Oct-2024 15:25 | 418796 | ||
| MRNA2_TS_DEWT_092025.nc | 01-Oct-2025 07:52 | 429828 | ||
| MRNA2_TS_DEWT_102013.nc | 27-Oct-2024 15:25 | 429828 | ||
| MRNA2_TS_DEWT_102014.nc | 27-Oct-2024 15:25 | 429820 | ||
| MRNA2_TS_DEWT_102016.nc | 27-Oct-2024 15:25 | 429830 | ||
| MRNA2_TS_DEWT_102018.nc | 27-Oct-2024 15:25 | 429823 | ||
| MRNA2_TS_DEWT_102019.nc | 27-Oct-2024 15:25 | 429738 | ||
| MRNA2_TS_DEWT_102020.nc | 27-Oct-2024 15:25 | 1263526 | ||
| MRNA2_TS_DEWT_102021.nc | 27-Oct-2024 15:25 | 1143836 | ||
| MRNA2_TS_DEWT_102022.nc | 27-Oct-2024 15:25 | 906999 | ||
| MRNA2_TS_DEWT_102023.nc | 27-Oct-2024 15:25 | 1264836 | ||
| MRNA2_TS_DEWT_102025.nc | 01-Nov-2025 06:56 | 1264678 | ||
| MRNA2_TS_DEWT_112012.nc | 27-Oct-2024 15:25 | 494066 | ||
| MRNA2_TS_DEWT_112013.nc | 27-Oct-2024 15:25 | 429471 | ||
| MRNA2_TS_DEWT_112014.nc | 27-Oct-2024 15:26 | 429468 | ||
| MRNA2_TS_DEWT_112015.nc | 27-Oct-2024 15:26 | 429481 | ||
| MRNA2_TS_DEWT_112016.nc | 27-Oct-2024 15:26 | 429485 | ||
| MRNA2_TS_DEWT_112018.nc | 27-Oct-2024 15:26 | 429483 | ||
| MRNA2_TS_DEWT_112019.nc | 27-Oct-2024 15:26 | 429482 | ||
| MRNA2_TS_DEWT_112020.nc | 27-Oct-2024 15:26 | 429483 | ||
| MRNA2_TS_DEWT_112021.nc | 27-Oct-2024 15:26 | 429487 | ||
| MRNA2_TS_DEWT_112022.nc | 27-Oct-2024 15:26 | 422663 | ||
| MRNA2_TS_DEWT_112023.nc | 27-Oct-2024 15:26 | 429483 | ||
| MRNA2_TS_DEWT_112024.nc | 17-Jan-2025 18:54 | 429482 | ||
| MRNA2_TS_DEWT_112025.nc | 01-Dec-2025 10:42 | 429486 | ||
| MRNA2_TS_DEWT_122012.nc | 27-Oct-2024 15:26 | 429463 | ||
| MRNA2_TS_DEWT_122013.nc | 27-Oct-2024 15:26 | 429487 | ||
| MRNA2_TS_DEWT_122014.nc | 27-Oct-2024 15:26 | 429486 | ||
| MRNA2_TS_DEWT_122015.nc | 27-Oct-2024 15:26 | 1110392 | ||
| MRNA2_TS_DEWT_122016.nc | 27-Oct-2024 15:26 | 993059 | ||
| MRNA2_TS_DEWT_122017.nc | 27-Oct-2024 15:26 | 906895 | ||
| MRNA2_TS_DEWT_122018.nc | 27-Oct-2024 15:26 | 1112826 | ||
| MRNA2_TS_DEWT_122019.nc | 27-Oct-2024 15:26 | 1113028 | ||
| MRNA2_TS_DEWT_122020.nc | 27-Oct-2024 15:26 | 4757353 | ||
| MRNA2_TS_DEWT_122021.nc | 27-Oct-2024 15:27 | 424089 | ||
| MRNA2_TS_DEWT_122022.nc | 27-Oct-2024 15:27 | 429800 | ||
| MRNA2_TS_DEWT_122023.nc | 27-Oct-2024 15:27 | 429823 | ||
| MRNA2_TS_DEWT_122024.nc | 22-Jan-2025 19:11 | 429829 | ||
| MRNA2_TS_DEWT_122025.nc | 01-Jan-2026 05:08 | 429824 | ||